sensor_id;sensor_type;location;lat;lon;timestamp;pressure;altitude;pressure_sealevel;temperature;humidity
29909;BME280;36247;51.952;6.146;2023-12-07T00:01:39;101871.22;;;0.52;100.00
29909;BME280;36247;51.952;6.146;2023-12-07T00:04:05;101875.59;;;0.65;100.00
29909;BME280;36247;51.952;6.146;2023-12-07T00:06:30;101877.25;;;0.77;100.00
29909;BME280;36247;51.952;6.146;2023-12-07T00:08:57;101873.69;;;0.63;100.00
29909;BME280;36247;51.952;6.146;2023-12-07T00:11:24;101885.31;;;0.43;100.00
29909;BME280;36247;51.952;6.146;2023-12-07T00:13:49;101876.44;;;0.52;100.00
29909;BME280;36247;51.952;6.146;2023-12-07T00:16:15;101876.66;;;0.56;100.00
29909;BME280;36247;51.952;6.146;2023-12-07T00:18:40;101872.06;;;0.40;100.00
29909;BME280;36247;51.952;6.146;2023-12-07T00:21:09;101872.06;;;0.40;100.00
29909;BME280;36247;51.952;6.146;2023-12-07T00:23:36;101863.34;;;0.39;100.00
29909;BME280;36247;51.952;6.146;2023-12-07T00:26:05;101869.69;;;0.31;100.00
29909;BME280;36247;51.952;6.146;2023-12-07T00:28:31;101873.47;;;0.23;100.00
29909;BME280;36247;51.952;6.146;2023-12-07T00:30:57;101874.69;;;0.28;100.00
29909;BME280;36247;51.952;6.146;2023-12-07T00:33:23;101869.03;;;0.22;100.00
29909;BME280;36247;51.952;6.146;2023-12-07T00:35:48;101871.84;;;0.25;100.00
29909;BME280;36247;51.952;6.146;2023-12-07T00:38:14;101873.78;;;0.27;100.00
29909;BME280;36247;51.952;6.146;2023-12-07T00:40:40;101873.00;;;0.16;100.00
29909;BME280;36247;51.952;6.146;2023-12-07T00:43:06;101868.34;;;0.24;100.00
29909;BME280;36247;51.952;6.146;2023-12-07T00:45:32;101871.19;;;0.15;100.00
29909;BME280;36247;51.952;6.146;2023-12-07T00:47:57;101871.06;;;0.26;100.00
29909;BME280;36247;51.952;6.146;2023-12-07T00:50:23;101870.97;;;0.24;100.00
29909;BME280;36247;51.952;6.146;2023-12-07T00:52:48;101875.25;;;0.12;100.00
29909;BME280;36247;51.952;6.146;2023-12-07T00:55:14;101870.06;;;0.12;100.00
29909;BME280;36247;51.952;6.146;2023-12-07T00:57:39;101877.19;;;0.14;100.00
29909;BME280;36247;51.952;6.146;2023-12-07T01:00:06;101881.97;;;-0.04;100.00
29909;BME280;36247;51.952;6.146;2023-12-07T01:02:32;101876.19;;;0.01;100.00
29909;BME280;36247;51.952;6.146;2023-12-07T01:04:57;101884.22;;;0.15;100.00
29909;BME280;36247;51.952;6.146;2023-12-07T01:07:23;101886.72;;;-0.10;100.00
29909;BME280;36247;51.952;6.146;2023-12-07T01:09:48;101889.00;;;-0.03;100.00
29909;BME280;36247;51.952;6.146;2023-12-07T01:12:15;101885.03;;;-0.21;100.00
29909;BME280;36247;51.952;6.146;2023-12-07T01:14:40;101894.22;;;-0.14;100.00
29909;BME280;36247;51.952;6.146;2023-12-07T01:17:11;101880.97;;;-0.17;100.00
29909;BME280;36247;51.952;6.146;2023-12-07T01:19:37;101882.75;;;0.07;100.00
29909;BME280;36247;51.952;6.146;2023-12-07T01:22:03;101878.34;;;0.06;100.00
29909;BME280;36247;51.952;6.146;2023-12-07T01:24:28;101880.50;;;0.00;100.00
29909;BME280;36247;51.952;6.146;2023-12-07T01:26:54;101879.13;;;-0.19;100.00
29909;BME280;36247;51.952;6.146;2023-12-07T01:29:20;101880.41;;;-0.13;100.00
29909;BME280;36247;51.952;6.146;2023-12-07T01:31:45;101881.19;;;-0.14;100.00
29909;BME280;36247;51.952;6.146;2023-12-07T01:34:12;101885.50;;;-0.27;100.00
29909;BME280;36247;51.952;6.146;2023-12-07T01:36:37;101879.03;;;-0.32;100.00
29909;BME280;36247;51.952;6.146;2023-12-07T01:39:03;101885.72;;;-0.24;100.00
29909;BME280;36247;51.952;6.146;2023-12-07T01:41:30;101882.53;;;-0.31;100.00
29909;BME280;36247;51.952;6.146;2023-12-07T01:43:56;101892.50;;;-0.26;100.00
29909;BME280;36247;51.952;6.146;2023-12-07T01:46:26;101886.81;;;-0.44;100.00
29909;BME280;36247;51.952;6.146;2023-12-07T01:48:51;101883.66;;;-0.40;100.00
29909;BME280;36247;51.952;6.146;2023-12-07T01:51:19;101893.75;;;-0.32;100.00
29909;BME280;36247;51.952;6.146;2023-12-07T01:53:45;101891.03;;;-0.34;100.00
29909;BME280;36247;51.952;6.146;2023-12-07T01:56:12;101895.53;;;-0.55;100.00
29909;BME280;36247;51.952;6.146;2023-12-07T01:58:38;101904.09;;;-0.68;100.00
29909;BME280;36247;51.952;6.146;2023-12-07T02:01:04;101903.22;;;-0.57;100.00
29909;BME280;36247;51.952;6.146;2023-12-07T02:03:31;101902.41;;;-0.56;100.00
29909;BME280;36247;51.952;6.146;2023-12-07T02:05:58;101898.16;;;-0.43;100.00
29909;BME280;36247;51.952;6.146;2023-12-07T02:08:24;101898.38;;;-0.52;100.00
29909;BME280;36247;51.952;6.146;2023-12-07T02:10:49;101904.78;;;-0.59;100.00
29909;BME280;36247;51.952;6.146;2023-12-07T02:13:16;101899.41;;;-0.38;100.00
29909;BME280;36247;51.952;6.146;2023-12-07T02:15:42;101896.25;;;-0.34;100.00
29909;BME280;36247;51.952;6.146;2023-12-07T02:21:07;101901.25;;;-0.13;100.00
29909;BME280;36247;51.952;6.146;2023-12-07T02:23:39;101896.91;;;-0.37;100.00
29909;BME280;36247;51.952;6.146;2023-12-07T02:26:07;101905.16;;;-0.42;100.00
29909;BME280;36247;51.952;6.146;2023-12-07T02:28:34;101903.25;;;-0.45;100.00
29909;BME280;36247;51.952;6.146;2023-12-07T02:31:00;101903.19;;;-0.68;100.00
29909;BME280;36247;51.952;6.146;2023-12-07T02:33:25;101905.03;;;-0.56;100.00
29909;BME280;36247;51.952;6.146;2023-12-07T02:35:52;101908.09;;;-0.38;100.00
29909;BME280;36247;51.952;6.146;2023-12-07T02:38:18;101899.84;;;-0.44;100.00
29909;BME280;36247;51.952;6.146;2023-12-07T02:40:44;101891.25;;;-0.31;100.00
29909;BME280;36247;51.952;6.146;2023-12-07T02:43:12;101892.59;;;-0.36;100.00
29909;BME280;36247;51.952;6.146;2023-12-07T02:45:38;101891.81;;;-0.47;100.00
29909;BME280;36247;51.952;6.146;2023-12-07T02:48:04;101889.09;;;-0.37;100.00
29909;BME280;36247;51.952;6.146;2023-12-07T02:50:30;101883.34;;;-0.32;100.00
29909;BME280;36247;51.952;6.146;2023-12-07T02:52:56;101887.72;;;-0.31;100.00
29909;BME280;36247;51.952;6.146;2023-12-07T02:55:22;101880.50;;;-0.36;100.00
29909;BME280;36247;51.952;6.146;2023-12-07T02:57:48;101881.41;;;-0.35;100.00
29909;BME280;36247;51.952;6.146;2023-12-07T03:00:14;101880.19;;;-0.28;100.00
29909;BME280;36247;51.952;6.146;2023-12-07T03:02:40;101871.63;;;-0.49;100.00
29909;BME280;36247;51.952;6.146;2023-12-07T03:05:06;101876.72;;;-0.51;100.00
29909;BME280;36247;51.952;6.146;2023-12-07T03:07:33;101881.91;;;-0.63;100.00
29909;BME280;36247;51.952;6.146;2023-12-07T03:09:59;101888.66;;;-0.89;100.00
29909;BME280;36247;51.952;6.146;2023-12-07T03:12:24;101890.88;;;-0.59;100.00
29909;BME280;36247;51.952;6.146;2023-12-07T03:14:50;101893.56;;;-0.69;100.00
29909;BME280;36247;51.952;6.146;2023-12-07T03:17:16;101892.13;;;-0.42;100.00
29909;BME280;36247;51.952;6.146;2023-12-07T03:19:41;101890.25;;;-0.45;100.00
29909;BME280;36247;51.952;6.146;2023-12-07T03:22:07;101885.25;;;-0.42;100.00
29909;BME280;36247;51.952;6.146;2023-12-07T03:24:37;101886.28;;;-0.28;100.00
29909;BME280;36247;51.952;6.146;2023-12-07T03:27:04;101890.94;;;-0.24;100.00
29909;BME280;36247;51.952;6.146;2023-12-07T03:29:32;101888.66;;;-0.31;100.00
29909;BME280;36247;51.952;6.146;2023-12-07T03:31:58;101889.63;;;-0.52;100.00
29909;BME280;36247;51.952;6.146;2023-12-07T03:34:24;101878.00;;;-0.46;100.00
29909;BME280;36247;51.952;6.146;2023-12-07T03:36:49;101889.38;;;-0.67;100.00
29909;BME280;36247;51.952;6.146;2023-12-07T03:39:16;101893.03;;;-0.65;100.00
29909;BME280;36247;51.952;6.146;2023-12-07T03:41:47;101904.28;;;-0.77;100.00
29909;BME280;36247;51.952;6.146;2023-12-07T03:44:13;101906.31;;;-0.84;100.00
29909;BME280;36247;51.952;6.146;2023-12-07T03:46:39;101900.38;;;-0.48;100.00
29909;BME280;36247;51.952;6.146;2023-12-07T03:49:05;101906.97;;;-0.41;100.00
29909;BME280;36247;51.952;6.146;2023-12-07T03:51:32;101903.94;;;-0.36;100.00
29909;BME280;36247;51.952;6.146;2023-12-07T03:53:58;101901.69;;;-0.19;100.00
29909;BME280;36247;51.952;6.146;2023-12-07T03:56:28;101901.19;;;-0.49;100.00
29909;BME280;36247;51.952;6.146;2023-12-07T03:58:55;101908.44;;;-0.33;100.00
29909;BME280;36247;51.952;6.146;2023-12-07T04:01:23;101905.06;;;-0.20;100.00
29909;BME280;36247;51.952;6.146;2023-12-07T04:03:50;101907.31;;;-0.37;100.00
29909;BME280;36247;51.952;6.146;2023-12-07T04:06:16;101918.28;;;-0.41;100.00
29909;BME280;36247;51.952;6.146;2023-12-07T04:08:42;101909.16;;;-0.24;100.00
29909;BME280;36247;51.952;6.146;2023-12-07T04:11:07;101908.47;;;-0.09;100.00
29909;BME280;36247;51.952;6.146;2023-12-07T04:13:33;101909.84;;;-0.03;100.00
29909;BME280;36247;51.952;6.146;2023-12-07T04:15:58;101904.53;;;-0.04;100.00
29909;BME280;36247;51.952;6.146;2023-12-07T04:18:24;101908.91;;;-0.03;100.00
29909;BME280;36247;51.952;6.146;2023-12-07T04:20:49;101918.19;;;-0.30;100.00
29909;BME280;36247;51.952;6.146;2023-12-07T04:23:15;101915.06;;;-0.14;100.00
29909;BME280;36247;51.952;6.146;2023-12-07T04:25:40;101915.06;;;-0.14;100.00
29909;BME280;36247;51.952;6.146;2023-12-07T04:28:06;101915.50;;;-0.08;100.00
29909;BME280;36247;51.952;6.146;2023-12-07T04:30:38;101909.63;;;-0.06;100.00
29909;BME280;36247;51.952;6.146;2023-12-07T04:33:03;101915.94;;;-0.14;100.00
29909;BME280;36247;51.952;6.146;2023-12-07T04:35:30;101916.88;;;-0.13;100.00
29909;BME280;36247;51.952;6.146;2023-12-07T04:37:55;101908.34;;;-0.11;100.00
29909;BME280;36247;51.952;6.146;2023-12-07T04:40:20;101915.25;;;-0.23;100.00
29909;BME280;36247;51.952;6.146;2023-12-07T04:42:47;101916.63;;;-0.40;100.00
29909;BME280;36247;51.952;6.146;2023-12-07T04:45:12;101904.59;;;-0.50;100.00
29909;BME280;36247;51.952;6.146;2023-12-07T04:47:37;101914.91;;;-0.40;100.00
29909;BME280;36247;51.952;6.146;2023-12-07T04:50:04;101914.25;;;-0.37;100.00
29909;BME280;36247;51.952;6.146;2023-12-07T04:52:30;101910.06;;;-0.23;100.00
29909;BME280;36247;51.952;6.146;2023-12-07T04:54:56;101909.72;;;-0.28;100.00
29909;BME280;36247;51.952;6.146;2023-12-07T04:57:22;101914.38;;;-0.24;100.00
29909;BME280;36247;51.952;6.146;2023-12-07T04:59:48;101922.97;;;-0.13;100.00
29909;BME280;36247;51.952;6.146;2023-12-07T05:02:14;101922.97;;;-0.25;100.00
29909;BME280;36247;51.952;6.146;2023-12-07T05:04:40;101925.91;;;-0.32;100.00
29909;BME280;36247;51.952;6.146;2023-12-07T05:07:06;101934.97;;;-0.39;100.00
29909;BME280;36247;51.952;6.146;2023-12-07T05:09:32;101930.09;;;-0.34;100.00
29909;BME280;36247;51.952;6.146;2023-12-07T05:11:58;101926.03;;;-0.19;100.00
29909;BME280;36247;51.952;6.146;2023-12-07T05:14:23;101922.66;;;0.06;100.00
29909;BME280;36247;51.952;6.146;2023-12-07T05:16:49;101917.22;;;0.03;100.00
29909;BME280;36247;51.952;6.146;2023-12-07T05:19:24;101922.97;;;0.11;100.00
29909;BME280;36247;51.952;6.146;2023-12-07T05:21:51;101927.47;;;0.25;100.00
29909;BME280;36247;51.952;6.146;2023-12-07T05:24:17;101919.88;;;0.28;100.00
29909;BME280;36247;51.952;6.146;2023-12-07T05:26:44;101917.97;;;0.26;100.00
29909;BME280;36247;51.952;6.146;2023-12-07T05:29:13;101920.16;;;0.20;100.00
29909;BME280;36247;51.952;6.146;2023-12-07T05:31:39;101915.59;;;0.29;100.00
29909;BME280;36247;51.952;6.146;2023-12-07T05:34:08;101915.94;;;0.33;100.00
29909;BME280;36247;51.952;6.146;2023-12-07T05:36:36;101918.00;;;0.14;100.00
29909;BME280;36247;51.952;6.146;2023-12-07T05:39:03;101917.19;;;0.15;100.00
29909;BME280;36247;51.952;6.146;2023-12-07T05:41:33;101911.06;;;0.03;100.00
29909;BME280;36247;51.952;6.146;2023-12-07T05:43:59;101918.44;;;0.08;100.00
29909;BME280;36247;51.952;6.146;2023-12-07T05:46:24;101921.59;;;0.16;100.00
29909;BME280;36247;51.952;6.146;2023-12-07T05:48:49;101914.22;;;0.10;100.00
29909;BME280;36247;51.952;6.146;2023-12-07T05:51:16;101912.06;;;0.28;100.00
29909;BME280;36247;51.952;6.146;2023-12-07T05:53:43;101913.00;;;0.29;100.00
29909;BME280;36247;51.952;6.146;2023-12-07T05:56:09;101907.44;;;0.36;100.00
29909;BME280;36247;51.952;6.146;2023-12-07T05:58:36;101903.91;;;0.24;100.00
29909;BME280;36247;51.952;6.146;2023-12-07T06:01:03;101907.56;;;0.26;100.00
29909;BME280;36247;51.952;6.146;2023-12-07T06:03:29;101909.84;;;0.21;100.00
29909;BME280;36247;51.952;6.146;2023-12-07T06:05:55;101910.50;;;0.30;100.00
29909;BME280;36247;51.952;6.146;2023-12-07T06:08:21;101912.44;;;0.33;100.00
29909;BME280;36247;51.952;6.146;2023-12-07T06:10:48;101911.38;;;0.43;100.00
29909;BME280;36247;51.952;6.146;2023-12-07T06:13:13;101904.09;;;0.50;100.00
29909;BME280;36247;51.952;6.146;2023-12-07T06:15:40;101908.22;;;0.35;100.00
29909;BME280;36247;51.952;6.146;2023-12-07T06:18:05;101904.13;;;0.27;100.00
29909;BME280;36247;51.952;6.146;2023-12-07T06:20:31;101906.41;;;0.22;100.00
29909;BME280;36247;51.952;6.146;2023-12-07T06:22:58;101915.84;;;0.08;100.00
29909;BME280;36247;51.952;6.146;2023-12-07T06:25:24;101915.38;;;0.14;100.00
29909;BME280;36247;51.952;6.146;2023-12-07T06:27:49;101914.34;;;0.24;100.00
29909;BME280;36247;51.952;6.146;2023-12-07T06:30:15;101912.56;;;0.23;100.00
29909;BME280;36247;51.952;6.146;2023-12-07T06:32:41;101915.81;;;0.32;100.00
29909;BME280;36247;51.952;6.146;2023-12-07T06:35:16;101919.00;;;0.28;100.00
29909;BME280;36247;51.952;6.146;2023-12-07T06:37:41;101917.28;;;0.28;100.00
29909;BME280;36247;51.952;6.146;2023-12-07T06:40:09;101926.13;;;0.42;100.00
29909;BME280;36247;51.952;6.146;2023-12-07T06:42:37;101933.22;;;0.45;100.00
29909;BME280;36247;51.952;6.146;2023-12-07T06:45:03;101921.13;;;0.33;100.00
29909;BME280;36247;51.952;6.146;2023-12-07T06:47:29;101936.13;;;0.24;100.00
29909;BME280;36247;51.952;6.146;2023-12-07T06:49:55;101934.28;;;0.35;100.00
29909;BME280;36247;51.952;6.146;2023-12-07T06:52:23;101929.31;;;0.14;100.00
29909;BME280;36247;51.952;6.146;2023-12-07T06:54:49;101932.69;;;0.13;100.00
29909;BME280;36247;51.952;6.146;2023-12-07T06:57:15;101932.97;;;0.16;100.00
29909;BME280;36247;51.952;6.146;2023-12-07T06:59:40;101943.72;;;0.09;100.00
29909;BME280;36247;51.952;6.146;2023-12-07T07:02:06;101940.88;;;0.18;100.00
29909;BME280;36247;51.952;6.146;2023-12-07T07:04:32;101937.34;;;0.17;100.00
29909;BME280;36247;51.952;6.146;2023-12-07T07:06:58;101928.06;;;0.21;100.00
29909;BME280;36247;51.952;6.146;2023-12-07T07:09:23;101936.09;;;0.36;100.00
29909;BME280;36247;51.952;6.146;2023-12-07T07:11:49;101930.28;;;0.40;100.00
29909;BME280;36247;51.952;6.146;2023-12-07T07:14:16;101932.47;;;0.34;100.00
29909;BME280;36247;51.952;6.146;2023-12-07T07:16:41;101931.13;;;0.39;100.00
29909;BME280;36247;51.952;6.146;2023-12-07T07:19:07;101926.22;;;0.44;100.00
29909;BME280;36247;51.952;6.146;2023-12-07T07:21:32;101923.84;;;0.35;100.00
29909;BME280;36247;51.952;6.146;2023-12-07T07:23:58;101936.56;;;0.30;100.00
29909;BME280;36247;51.952;6.146;2023-12-07T07:26:23;101922.16;;;0.35;100.00
29909;BME280;36247;51.952;6.146;2023-12-07T07:28:53;101938.28;;;0.18;100.00
29909;BME280;36247;51.952;6.146;2023-12-07T07:31:19;101936.56;;;0.19;100.00
29909;BME280;36247;51.952;6.146;2023-12-07T07:33:45;101946.09;;;-0.06;100.00
29909;BME280;36247;51.952;6.146;2023-12-07T07:36:14;101947.88;;;0.07;100.00
29909;BME280;36247;51.952;6.146;2023-12-07T07:38:41;101942.22;;;0.13;100.00
29909;BME280;36247;51.952;6.146;2023-12-07T07:41:06;101936.88;;;-0.12;100.00
29909;BME280;36247;51.952;6.146;2023-12-07T07:43:32;101942.66;;;-0.40;100.00
29909;BME280;36247;51.952;6.146;2023-12-07T07:45:59;101948.69;;;-0.17;100.00
29909;BME280;36247;51.952;6.146;2023-12-07T07:48:25;101944.38;;;-0.05;100.00
29909;BME280;36247;51.952;6.146;2023-12-07T07:50:51;101949.16;;;0.12;100.00
29909;BME280;36247;51.952;6.146;2023-12-07T07:53:17;101958.63;;;-0.24;100.00
29909;BME280;36247;51.952;6.146;2023-12-07T07:55:43;101955.59;;;-0.30;100.00
29909;BME280;36247;51.952;6.146;2023-12-07T07:58:08;101964.53;;;-0.14;100.00
29909;BME280;36247;51.952;6.146;2023-12-07T08:00:33;101970.09;;;-0.10;100.00
29909;BME280;36247;51.952;6.146;2023-12-07T08:03:01;101965.00;;;0.04;100.00
29909;BME280;36247;51.952;6.146;2023-12-07T08:05:28;101956.72;;;-0.26;100.00
29909;BME280;36247;51.952;6.146;2023-12-07T08:07:53;101962.16;;;0.01;100.00
29909;BME280;36247;51.952;6.146;2023-12-07T08:10:19;101965.00;;;0.15;100.00
29909;BME280;36247;51.952;6.146;2023-12-07T08:12:45;101966.03;;;0.17;100.00
29909;BME280;36247;51.952;6.146;2023-12-07T08:15:12;101963.63;;;0.21;100.00
29909;BME280;36247;51.952;6.146;2023-12-07T08:17:41;101962.50;;;0.29;100.00
29909;BME280;36247;51.952;6.146;2023-12-07T08:20:08;101955.16;;;0.11;100.00
29909;BME280;36247;51.952;6.146;2023-12-07T08:22:39;101956.38;;;0.28;100.00
29909;BME280;36247;51.952;6.146;2023-12-07T08:25:06;101955.59;;;-0.06;100.00
29909;BME280;36247;51.952;6.146;2023-12-07T08:27:33;101961.50;;;0.03;100.00
29909;BME280;36247;51.952;6.146;2023-12-07T08:30:00;101959.78;;;0.27;100.00
29909;BME280;36247;51.952;6.146;2023-12-07T08:32:25;101958.53;;;0.34;100.00
29909;BME280;36247;51.952;6.146;2023-12-07T08:34:52;101943.44;;;0.30;100.00
29909;BME280;36247;51.952;6.146;2023-12-07T08:37:18;101950.38;;;0.29;100.00
29909;BME280;36247;51.952;6.146;2023-12-07T08:39:44;101942.22;;;0.25;100.00
29909;BME280;36247;51.952;6.146;2023-12-07T08:42:09;101941.88;;;0.44;100.00
29909;BME280;36247;51.952;6.146;2023-12-07T08:44:39;101948.34;;;0.13;100.00
29909;BME280;36247;51.952;6.146;2023-12-07T08:47:06;101945.50;;;0.34;100.00
29909;BME280;36247;51.952;6.146;2023-12-07T08:49:32;101950.13;;;0.50;100.00
29909;BME280;36247;51.952;6.146;2023-12-07T08:51:58;101949.69;;;0.56;100.00
29909;BME280;36247;51.952;6.146;2023-12-07T08:54:23;101948.97;;;0.58;100.00
29909;BME280;36247;51.952;6.146;2023-12-07T08:56:49;101947.06;;;0.56;100.00
29909;BME280;36247;51.952;6.146;2023-12-07T08:59:14;101938.31;;;0.55;100.00
29909;BME280;36247;51.952;6.146;2023-12-07T09:01:40;101942.31;;;0.50;100.00
29909;BME280;36247;51.952;6.146;2023-12-07T09:04:05;101938.22;;;0.53;100.00
29909;BME280;36247;51.952;6.146;2023-12-07T09:06:32;101948.06;;;0.58;100.00
29909;BME280;36247;51.952;6.146;2023-12-07T09:08:58;101948.28;;;0.61;100.00
29909;BME280;36247;51.952;6.146;2023-12-07T09:11:24;101940.78;;;0.65;100.00
29909;BME280;36247;51.952;6.146;2023-12-07T09:13:50;101940.13;;;0.68;100.00
29909;BME280;36247;51.952;6.146;2023-12-07T09:16:16;101938.16;;;0.77;100.00
29909;BME280;36247;51.952;6.146;2023-12-07T09:18:42;101942.44;;;0.40;100.00
29909;BME280;36247;51.952;6.146;2023-12-07T09:21:08;101929.81;;;0.58;100.00
29909;BME280;36247;51.952;6.146;2023-12-07T09:23:34;101933.28;;;0.70;100.00
29909;BME280;36247;51.952;6.146;2023-12-07T09:26:03;101935.50;;;0.89;100.00
29909;BME280;36247;51.952;6.146;2023-12-07T09:28:29;101944.66;;;0.70;100.00
29909;BME280;36247;51.952;6.146;2023-12-07T09:30:54;101939.19;;;0.79;100.00
29909;BME280;36247;51.952;6.146;2023-12-07T09:33:20;101943.63;;;0.68;100.00
29909;BME280;36247;51.952;6.146;2023-12-07T09:35:45;101930.78;;;0.72;100.00
29909;BME280;36247;51.952;6.146;2023-12-07T09:38:11;101935.16;;;0.59;100.00
29909;BME280;36247;51.952;6.146;2023-12-07T09:40:36;101941.59;;;0.76;100.00
29909;BME280;36247;51.952;6.146;2023-12-07T09:43:03;101940.72;;;0.89;100.00
29909;BME280;36247;51.952;6.146;2023-12-07T09:45:29;101945.41;;;0.81;100.00
29909;BME280;36247;51.952;6.146;2023-12-07T09:47:54;101931.38;;;0.79;100.00
29909;BME280;36247;51.952;6.146;2023-12-07T09:50:25;101923.53;;;0.79;100.00
29909;BME280;36247;51.952;6.146;2023-12-07T09:52:52;101922.47;;;0.89;100.00
29909;BME280;36247;51.952;6.146;2023-12-07T09:55:18;101933.50;;;0.73;100.00
29909;BME280;36247;51.952;6.146;2023-12-07T09:57:45;101932.66;;;0.98;100.00
29909;BME280;36247;51.952;6.146;2023-12-07T10:00:12;101931.25;;;0.78;100.00
29909;BME280;36247;51.952;6.146;2023-12-07T10:02:41;101923.22;;;1.00;100.00
29909;BME280;36247;51.952;6.146;2023-12-07T10:05:14;101914.50;;;0.99;100.00
29909;BME280;36247;51.952;6.146;2023-12-07T10:07:47;101917.00;;;0.98;100.00
29909;BME280;36247;51.952;6.146;2023-12-07T10:10:14;101916.94;;;0.84;100.00
29909;BME280;36247;51.952;6.146;2023-12-07T10:12:53;101913.97;;;1.17;100.00
29909;BME280;36247;51.952;6.146;2023-12-07T10:15:20;101910.09;;;0.86;100.00
29909;BME280;36247;51.952;6.146;2023-12-07T10:17:48;101905.31;;;1.18;100.00
29909;BME280;36247;51.952;6.146;2023-12-07T10:20:21;101900.41;;;1.09;100.00
29909;BME280;36247;51.952;6.146;2023-12-07T10:23:09;101897.88;;;1.36;100.00
29909;BME280;36247;51.952;6.146;2023-12-07T10:25:40;101901.69;;;1.41;100.00
29909;BME280;36247;51.952;6.146;2023-12-07T10:28:07;101895.81;;;1.18;100.00
29909;BME280;36247;51.952;6.146;2023-12-07T10:30:34;101892.41;;;1.33;100.00
29909;BME280;36247;51.952;6.146;2023-12-07T10:33:00;101884.00;;;1.12;100.00
29909;BME280;36247;51.952;6.146;2023-12-07T10:35:28;101876.44;;;1.03;100.00
29909;BME280;36247;51.952;6.146;2023-12-07T10:37:54;101877.78;;;1.10;100.00
29909;BME280;36247;51.952;6.146;2023-12-07T10:40:20;101868.28;;;1.23;100.00
29909;BME280;36247;51.952;6.146;2023-12-07T10:42:48;101867.22;;;1.33;100.00
29909;BME280;36247;51.952;6.146;2023-12-07T10:45:14;101860.34;;;1.22;100.00
29909;BME280;36247;51.952;6.146;2023-12-07T10:47:43;101856.50;;;1.42;100.00
29909;BME280;36247;51.952;6.146;2023-12-07T10:50:10;101842.84;;;1.59;100.00
29909;BME280;36247;51.952;6.146;2023-12-07T10:52:52;101850.66;;;1.46;100.00
29909;BME280;36247;51.952;6.146;2023-12-07T10:55:21;101850.66;;;1.59;100.00
29909;BME280;36247;51.952;6.146;2023-12-07T10:57:52;101851.00;;;1.51;100.00
29909;BME280;36247;51.952;6.146;2023-12-07T11:00:19;101835.19;;;1.63;100.00
29909;BME280;36247;51.952;6.146;2023-12-07T11:02:50;101834.81;;;1.70;100.00
29909;BME280;36247;51.952;6.146;2023-12-07T11:05:17;101821.16;;;1.74;100.00
29909;BME280;36247;51.952;6.146;2023-12-07T11:08:06;101815.53;;;1.81;100.00
29909;BME280;36247;51.952;6.146;2023-12-07T11:10:39;101813.72;;;1.80;100.00
29909;BME280;36247;51.952;6.146;2023-12-07T11:13:14;101802.22;;;2.05;100.00
29909;BME280;36247;51.952;6.146;2023-12-07T11:15:43;101809.59;;;1.97;100.00
29909;BME280;36247;51.952;6.146;2023-12-07T11:18:09;101793.78;;;1.96;100.00
29909;BME280;36247;51.952;6.146;2023-12-07T11:20:40;101787.94;;;2.00;100.00
29909;BME280;36247;51.952;6.146;2023-12-07T11:23:11;101779.75;;;1.80;100.00
29909;BME280;36247;51.952;6.146;2023-12-07T11:25:43;101782.44;;;1.95;100.00
29909;BME280;36247;51.952;6.146;2023-12-07T11:28:11;101782.31;;;2.07;100.00
29909;BME280;36247;51.952;6.146;2023-12-07T11:30:37;101779.97;;;2.11;100.00
29909;BME280;36247;51.952;6.146;2023-12-07T11:33:04;101779.50;;;2.04;100.00
29909;BME280;36247;51.952;6.146;2023-12-07T11:35:32;101769.25;;;2.07;100.00
29909;BME280;36247;51.952;6.146;2023-12-07T11:40:40;101767.34;;;2.33;100.00
29909;BME280;36247;51.952;6.146;2023-12-07T11:43:06;101768.31;;;2.20;100.00
29909;BME280;36247;51.952;6.146;2023-12-07T11:46:09;101769.59;;;2.26;100.00
29909;BME280;36247;51.952;6.146;2023-12-07T11:48:29;101757.94;;;2.21;100.00
29909;BME280;36247;51.952;6.146;2023-12-07T11:53:28;101753.06;;;2.41;100.00
29909;BME280;36247;51.952;6.146;2023-12-07T11:56:08;101751.50;;;2.16;100.00
29909;BME280;36247;51.952;6.146;2023-12-07T11:58:36;101749.00;;;2.46;100.00
29909;BME280;36247;51.952;6.146;2023-12-07T12:01:03;101749.72;;;2.15;100.00
29909;BME280;36247;51.952;6.146;2023-12-07T12:03:31;101754.88;;;2.14;100.00
29909;BME280;36247;51.952;6.146;2023-12-07T12:05:58;101747.34;;;2.33;100.00
29909;BME280;36247;51.952;6.146;2023-12-07T12:08:23;101742.16;;;2.20;100.00
29909;BME280;36247;51.952;6.146;2023-12-07T12:10:51;101740.41;;;2.34;100.00
29909;BME280;36247;51.952;6.146;2023-12-07T12:13:19;101733.94;;;2.42;100.00
29909;BME280;36247;51.952;6.146;2023-12-07T12:15:45;101736.34;;;2.39;100.00
29909;BME280;36247;51.952;6.146;2023-12-07T12:18:12;101740.06;;;2.42;100.00
29909;BME280;36247;51.952;6.146;2023-12-07T12:20:39;101734.59;;;2.53;100.00
29909;BME280;36247;51.952;6.146;2023-12-07T12:23:05;101736.13;;;2.64;100.00
29909;BME280;36247;51.952;6.146;2023-12-07T12:25:32;101727.59;;;2.38;100.00
29909;BME280;36247;51.952;6.146;2023-12-07T12:28:04;101724.94;;;2.52;100.00
29909;BME280;36247;51.952;6.146;2023-12-07T12:30:33;101716.19;;;2.51;100.00
29909;BME280;36247;51.952;6.146;2023-12-07T12:32:59;101706.97;;;2.58;100.00
29909;BME280;36247;51.952;6.146;2023-12-07T12:35:28;101697.03;;;2.37;100.00
29909;BME280;36247;51.952;6.146;2023-12-07T12:37:54;101691.53;;;2.47;100.00
29909;BME280;36247;51.952;6.146;2023-12-07T12:40:23;101682.56;;;2.57;100.00
29909;BME280;36247;51.952;6.146;2023-12-07T12:42:58;101676.31;;;2.55;100.00
29909;BME280;36247;51.952;6.146;2023-12-07T12:45:24;101674.78;;;2.74;100.00
29909;BME280;36247;51.952;6.146;2023-12-07T12:47:49;101672.97;;;2.58;100.00
29909;BME280;36247;51.952;6.146;2023-12-07T12:53:02;101671.56;;;2.78;100.00
29909;BME280;36247;51.952;6.146;2023-12-07T12:55:40;101679.94;;;2.87;100.00